createdAt,value
2023-02-03T00:01:04.137Z,5.39
2023-02-03T00:03:31.946Z,5.40
2023-02-03T00:06:01.623Z,5.60
2023-02-03T00:08:28.822Z,5.61
2023-02-03T00:10:56.194Z,5.76
2023-02-03T00:13:23.896Z,5.81
2023-02-03T00:15:51.157Z,5.62
2023-02-03T00:18:18.683Z,5.57
2023-02-03T00:20:46.315Z,5.55
2023-02-03T00:23:13.831Z,5.63
2023-02-03T00:25:41.280Z,5.45
2023-02-03T00:28:08.886Z,5.44
2023-02-03T00:30:56.250Z,4.98
2023-02-03T00:33:25.880Z,5.11
2023-02-03T00:35:57.784Z,4.48
2023-02-03T00:39:01.876Z,4.94
2023-02-03T00:41:37.599Z,4.96
2023-02-03T00:44:14.629Z,4.53
2023-02-03T00:46:42.274Z,4.43
2023-02-03T00:49:09.517Z,4.28
2023-02-03T00:51:41.081Z,4.40
2023-02-03T00:54:22.766Z,4.21
2023-02-03T00:57:19.437Z,4.17
2023-02-03T00:59:52.090Z,4.78
2023-02-03T01:02:42.258Z,2.97
2023-02-03T01:05:37.737Z,4.62
2023-02-03T01:11:21.823Z,4.26
2023-02-03T01:13:50.474Z,4.23
2023-02-03T01:16:23.530Z,4.04
2023-02-03T01:18:55.787Z,4.10
2023-02-03T01:21:25.338Z,3.93
2023-02-03T01:24:10.395Z,4.21
2023-02-03T01:29:42.650Z,4.25
2023-02-03T01:32:10.032Z,4.17
2023-02-03T01:34:48.357Z,3.90
2023-02-03T01:37:28.134Z,3.88
2023-02-03T01:39:55.514Z,4.11
2023-02-03T01:43:14.260Z,4.12
2023-02-03T01:45:57.107Z,3.94
2023-02-03T01:48:24.887Z,4.00
2023-02-03T01:50:52.507Z,3.98
2023-02-03T01:53:20.406Z,3.95
2023-02-03T01:56:16.048Z,3.65
2023-02-03T01:58:46.704Z,4.19
2023-02-03T02:05:36.554Z,3.92
2023-02-03T02:08:33.943Z,3.90
2023-02-03T02:14:29.314Z,4.38
2023-02-03T02:17:14.955Z,4.65
2023-02-03T02:20:00.705Z,4.70
2023-02-03T02:23:07.478Z,4.41
2023-02-03T02:25:53.660Z,4.77
2023-02-03T02:28:45.927Z,4.77
2023-02-03T02:35:12.114Z,4.58
2023-02-03T02:38:00.755Z,4.22
2023-02-03T02:41:05.009Z,4.45
2023-02-03T02:43:48.655Z,4.79
2023-02-03T02:46:24.531Z,4.84
2023-02-03T02:49:01.147Z,4.92
2023-02-03T02:51:30.816Z,4.82
2023-02-03T02:54:06.159Z,4.88
2023-02-03T02:56:37.022Z,4.94
2023-02-03T02:59:07.069Z,4.74
2023-02-03T03:01:34.529Z,4.87
2023-02-03T03:04:06.259Z,4.90
2023-02-03T03:07:06.915Z,4.94
2023-02-03T03:09:39.420Z,4.81
2023-02-03T03:12:07.940Z,4.90
2023-02-03T03:14:39.443Z,4.79
2023-02-03T03:17:10.457Z,4.56
2023-02-03T03:19:41.916Z,4.91
2023-02-03T03:22:12.051Z,4.69
2023-02-03T03:24:49.352Z,4.17
2023-02-03T03:27:32.948Z,4.80
2023-02-03T03:30:06.554Z,4.80
2023-02-03T03:32:35.819Z,4.75
2023-02-03T03:35:07.620Z,4.43
2023-02-03T03:37:39.659Z,4.14
2023-02-03T03:40:36.610Z,4.87
2023-02-03T03:43:20.675Z,4.22
2023-02-03T03:46:14.695Z,4.24
2023-02-03T03:48:54.868Z,4.98
2023-02-03T03:51:59.078Z,4.41
2023-02-03T03:54:30.583Z,4.25
2023-02-03T03:57:19.948Z,4.28
2023-02-03T03:59:51.727Z,4.27
2023-02-03T04:02:27.158Z,4.21
2023-02-03T04:05:03.612Z,4.21
2023-02-03T04:07:43.205Z,4.57
2023-02-03T04:10:28.389Z,4.39
2023-02-03T04:12:58.586Z,4.18
2023-02-03T04:15:27.956Z,4.31
2023-02-03T04:18:01.272Z,4.45
2023-02-03T04:20:31.782Z,4.74
2023-02-03T04:23:01.007Z,4.25
2023-02-03T04:25:30.153Z,4.23
2023-02-03T04:27:59.415Z,4.09
2023-02-03T04:30:29.908Z,4.10
2023-02-03T04:32:58.435Z,4.67
2023-02-03T04:35:28.061Z,4.70
2023-02-03T04:37:58.287Z,3.94
2023-02-03T04:40:27.021Z,4.00
2023-02-03T04:42:55.513Z,4.28
2023-02-03T04:45:25.401Z,4.34
2023-02-03T04:47:54.573Z,4.27
2023-02-03T04:50:23.895Z,4.43
2023-02-03T04:52:52.187Z,4.51
2023-02-03T04:55:23.183Z,4.60
2023-02-03T04:58:00.984Z,3.98
2023-02-03T05:00:30.132Z,4.65
2023-02-03T05:02:57.716Z,4.39
2023-02-03T05:05:25.872Z,4.54
2023-02-03T05:07:53.418Z,4.36
2023-02-03T05:10:21.404Z,4.49
2023-02-03T05:12:50.163Z,4.60
2023-02-03T05:15:17.530Z,4.39
2023-02-03T05:17:44.933Z,4.27
2023-02-03T05:20:12.610Z,4.29
2023-02-03T05:22:40.148Z,4.47
2023-02-03T05:25:08.307Z,4.35
2023-02-03T05:27:38.879Z,4.40
2023-02-03T05:30:08.000Z,4.18
2023-02-03T05:32:36.108Z,4.42
2023-02-03T05:35:03.805Z,4.50
2023-02-03T05:37:32.711Z,4.60
2023-02-03T05:40:21.349Z,4.29
2023-02-03T05:42:49.287Z,4.53
2023-02-03T05:45:17.506Z,4.53
2023-02-03T05:47:44.813Z,4.53
2023-02-03T05:50:13.063Z,4.20
2023-02-03T05:52:40.899Z,4.51
2023-02-03T05:55:08.548Z,4.26
2023-02-03T05:57:35.804Z,4.32
2023-02-03T06:00:04.400Z,4.23
2023-02-03T06:02:40.004Z,4.30
2023-02-03T06:05:08.784Z,4.57
2023-02-03T06:07:37.539Z,4.22
2023-02-03T06:10:07.882Z,4.01
2023-02-03T06:12:39.294Z,4.58
2023-02-03T06:15:07.636Z,4.46
2023-02-03T06:17:36.367Z,4.36
2023-02-03T06:20:09.282Z,4.12
2023-02-03T06:22:37.966Z,3.90
2023-02-03T06:25:06.507Z,3.96
2023-02-03T06:27:35.577Z,4.47
2023-02-03T06:30:03.931Z,4.17
2023-02-03T06:32:49.567Z,2.52
2023-02-03T06:35:47.746Z,4.45
2023-02-03T06:38:54.692Z,4.50
2023-02-03T06:45:25.078Z,4.21
2023-02-03T06:47:52.916Z,4.36
2023-02-03T06:50:21.114Z,4.27
2023-02-03T06:53:20.596Z,4.76
2023-02-03T06:55:48.153Z,4.57
2023-02-03T06:58:57.044Z,3.05
2023-02-03T07:01:26.174Z,4.47
2023-02-03T07:04:23.979Z,4.52
2023-02-03T07:07:02.162Z,4.79
2023-02-03T07:09:29.485Z,4.79
2023-02-03T07:12:12.457Z,5.21
2023-02-03T07:14:45.945Z,4.66
2023-02-03T07:17:27.722Z,3.59
2023-02-03T07:19:55.170Z,5.27
2023-02-03T07:22:36.919Z,5.49
2023-02-03T07:25:35.633Z,5.61
2023-02-03T07:31:05.938Z,5.29
2023-02-03T07:33:33.765Z,5.56
2023-02-03T07:39:48.498Z,5.13
2023-02-03T07:42:16.328Z,5.52
2023-02-03T07:45:02.836Z,5.27
2023-02-03T07:50:41.608Z,4.84
2023-02-03T07:53:09.510Z,5.39
2023-02-03T07:55:39.616Z,5.47
2023-02-03T07:58:20.811Z,5.82
2023-02-03T08:06:56.123Z,5.97
2023-02-03T08:12:56.480Z,5.81
2023-02-03T08:15:23.567Z,5.80
2023-02-03T08:18:05.066Z,6.06
2023-02-03T08:20:39.099Z,5.87
2023-02-03T08:23:21.650Z,5.71
2023-02-03T08:25:55.059Z,5.98
2023-02-03T08:28:22.479Z,5.59
2023-02-03T08:31:14.635Z,4.33
2023-02-03T08:37:14.004Z,5.95
2023-02-03T08:39:41.619Z,5.85
2023-02-03T08:42:11.190Z,6.20
2023-02-03T08:44:41.610Z,5.76
2023-02-03T08:47:54.809Z,6.28
2023-02-03T08:51:09.337Z,6.30
2023-02-03T08:59:24.676Z,5.88
2023-02-03T09:01:54.456Z,5.89
2023-02-03T09:04:30.775Z,6.01
2023-02-03T09:07:06.131Z,4.22
2023-02-03T09:12:36.965Z,5.79
2023-02-03T09:18:27.196Z,5.52
2023-02-03T09:21:13.913Z,6.02
2023-02-03T09:23:48.814Z,6.10
2023-02-03T09:26:16.483Z,6.06
2023-02-03T09:28:43.986Z,5.83
2023-02-03T09:31:19.948Z,5.73
2023-02-03T09:33:53.832Z,4.31
2023-02-03T09:36:21.376Z,6.18
2023-02-03T09:38:48.961Z,5.91
2023-02-03T09:52:28.555Z,4.19
2023-02-03T09:55:28.601Z,5.73
2023-02-03T09:58:02.117Z,6.15
2023-02-03T10:05:15.380Z,6.56
2023-02-03T10:15:37.877Z,6.51
2023-02-03T10:21:11.220Z,6.41
2023-02-03T10:23:41.260Z,6.09
2023-02-03T10:30:07.119Z,5.83
2023-02-03T10:36:23.948Z,6.22
2023-02-03T10:39:33.168Z,6.20
2023-02-03T10:42:02.374Z,6.18
2023-02-03T10:44:40.458Z,6.17
2023-02-03T10:47:36.715Z,5.86
2023-02-03T10:53:45.199Z,5.86
2023-02-03T10:56:48.868Z,6.29
2023-02-03T11:03:17.880Z,6.05
2023-02-03T11:05:47.696Z,5.79
2023-02-03T11:11:41.886Z,5.81
2023-02-03T11:14:09.421Z,6.08
2023-02-03T11:16:39.731Z,6.06
2023-02-03T11:19:41.922Z,5.45
2023-02-03T11:22:27.851Z,5.93
2023-02-03T11:24:55.770Z,5.97
2023-02-03T11:27:25.089Z,5.94
2023-02-03T11:30:11.831Z,5.67
2023-02-03T11:32:42.718Z,5.74
2023-02-03T11:35:22.858Z,6.01
2023-02-03T11:38:01.952Z,5.73
2023-02-03T11:41:17.484Z,6.27
2023-02-03T11:43:45.472Z,6.34
2023-02-03T11:49:32.521Z,6.48
2023-02-03T11:52:25.489Z,4.44
2023-02-03T11:55:03.999Z,6.38
2023-02-03T12:01:13.673Z,6.46
2023-02-03T12:03:56.926Z,4.76
2023-02-03T12:06:49.530Z,6.68
2023-02-03T12:09:43.725Z,6.93
2023-02-03T12:12:22.336Z,6.84
2023-02-03T12:14:53.280Z,7.14
2023-02-03T12:20:49.445Z,7.17
2023-02-03T12:23:35.877Z,7.25
2023-02-03T12:26:09.738Z,7.37
2023-02-03T12:29:26.745Z,7.30
2023-02-03T12:32:18.362Z,7.09
2023-02-03T12:34:54.044Z,7.02
2023-02-03T12:37:34.670Z,6.58
2023-02-03T12:40:44.718Z,6.46
2023-02-03T12:50:32.628Z,7.33
2023-02-03T12:53:13.134Z,6.64
2023-02-03T13:00:14.621Z,7.40
2023-02-03T13:03:03.562Z,7.50
2023-02-03T13:09:06.931Z,7.71
2023-02-03T13:11:50.211Z,7.03
2023-02-03T13:14:48.103Z,7.38
2023-02-03T13:17:28.413Z,7.10
2023-02-03T13:20:35.405Z,7.22
2023-02-03T13:23:41.674Z,5.39
2023-02-03T13:26:25.630Z,7.06
2023-02-03T13:36:42.531Z,6.93
2023-02-03T13:42:55.805Z,5.17
2023-02-03T13:45:27.853Z,6.94
2023-02-03T13:48:01.868Z,6.34
2023-02-03T13:50:32.845Z,6.48
2023-02-03T13:53:08.156Z,6.71
2023-02-03T13:55:42.986Z,6.75
2023-02-03T13:58:29.971Z,5.27
2023-02-03T14:00:57.399Z,7.05
2023-02-03T14:10:27.144Z,6.26
2023-02-03T14:13:00.826Z,5.98
2023-02-03T14:15:32.791Z,6.95
2023-02-03T14:18:32.203Z,6.90
2023-02-03T14:21:13.163Z,6.51
2023-02-03T14:23:50.144Z,6.35
2023-02-03T14:33:04.446Z,6.53
2023-02-03T14:45:01.961Z,6.79
2023-02-03T14:47:41.937Z,6.77
2023-02-03T14:50:28.579Z,6.38
2023-02-03T14:53:12.168Z,6.75
2023-02-03T14:55:53.214Z,6.77
2023-02-03T14:58:27.381Z,6.76
2023-02-03T15:00:56.665Z,6.64
2023-02-03T15:03:26.533Z,6.47
2023-02-03T15:06:03.590Z,6.50
2023-02-03T15:08:44.710Z,6.67
2023-02-03T15:11:34.805Z,6.01
2023-02-03T15:14:24.880Z,6.16
2023-02-03T15:17:03.569Z,6.24
2023-02-03T15:19:38.446Z,6.12
2023-02-03T15:22:24.635Z,6.28
2023-02-03T15:24:55.738Z,6.52
2023-02-03T15:27:25.518Z,6.50
2023-02-03T15:29:53.675Z,6.66
2023-02-03T15:32:38.002Z,6.30
2023-02-03T15:35:13.500Z,6.44
2023-02-03T15:37:47.958Z,6.59
2023-02-03T15:40:30.636Z,6.60
2023-02-03T15:43:15.306Z,6.56
2023-02-03T15:45:46.337Z,6.17
2023-02-03T15:48:41.739Z,6.47
2023-02-03T15:51:21.688Z,6.49
2023-02-03T15:54:11.947Z,6.40
2023-02-03T15:56:58.524Z,6.13
2023-02-03T16:03:11.840Z,5.65
2023-02-03T16:09:40.011Z,5.98
2023-02-03T16:12:28.419Z,6.21
2023-02-03T16:15:00.564Z,5.91
2023-02-03T16:20:53.183Z,5.80
2023-02-03T16:23:26.268Z,6.23
2023-02-03T16:26:29.846Z,5.74
2023-02-03T16:33:47.906Z,5.87
2023-02-03T16:46:16.112Z,6.38
2023-02-03T16:51:42.964Z,5.87
2023-02-03T16:54:18.634Z,5.95
2023-02-03T16:56:46.358Z,5.72
2023-02-03T16:59:16.915Z,6.08
2023-02-03T17:01:59.020Z,4.31
2023-02-03T17:04:44.687Z,6.15
2023-02-03T17:07:14.027Z,5.90
2023-02-03T17:09:43.200Z,6.16
2023-02-03T17:12:15.172Z,5.51
2023-02-03T17:14:42.908Z,5.75
2023-02-03T17:20:03.222Z,6.26
2023-02-03T17:22:32.318Z,6.30
2023-02-03T17:24:59.733Z,6.35
2023-02-03T17:27:26.983Z,6.16
2023-02-03T17:32:45.009Z,6.40
2023-02-03T17:35:12.247Z,6.49
2023-02-03T17:37:39.402Z,6.61
2023-02-03T17:55:31.159Z,7.23
2023-02-03T17:58:01.352Z,7.23
2023-02-03T18:01:03.202Z,7.18
2023-02-03T18:03:44.395Z,7.20
2023-02-03T18:06:13.641Z,6.92
2023-02-03T18:08:42.292Z,6.95
2023-02-03T18:11:10.892Z,6.92
2023-02-03T18:13:44.695Z,6.69
2023-02-03T18:16:35.272Z,6.32
2023-02-03T18:19:05.658Z,5.88
2023-02-03T18:21:33.919Z,6.20
2023-02-03T18:24:02.074Z,6.13
2023-02-03T18:26:34.959Z,6.13
2023-02-03T18:34:37.105Z,6.24
2023-02-03T18:37:35.783Z,6.16
2023-02-03T18:40:03.275Z,6.18
2023-02-03T18:42:30.377Z,6.04
2023-02-03T18:44:57.680Z,6.04
2023-02-03T18:47:25.151Z,6.06
2023-02-03T18:49:52.263Z,6.15
2023-02-03T18:52:20.184Z,6.02
2023-02-03T18:54:47.838Z,5.97
2023-02-03T18:57:15.896Z,6.05
2023-02-03T18:59:44.198Z,5.72
2023-02-03T19:02:15.292Z,5.90
2023-02-03T19:04:42.889Z,5.71
2023-02-03T19:07:30.130Z,5.34
2023-02-03T19:09:57.922Z,5.58
2023-02-03T19:12:39.944Z,5.84
2023-02-03T19:15:09.733Z,5.75
2023-02-03T19:17:38.423Z,5.94
2023-02-03T19:20:07.240Z,5.88
2023-02-03T19:25:33.413Z,6.24
2023-02-03T19:28:02.573Z,5.84
2023-02-03T19:30:33.103Z,5.67
2023-02-03T19:33:03.083Z,5.88
2023-02-03T19:35:35.123Z,6.00
2023-02-03T19:38:03.074Z,5.95
2023-02-03T19:40:32.161Z,6.12
2023-02-03T19:43:00.166Z,6.44
2023-02-03T19:45:27.922Z,6.25
2023-02-03T19:47:55.273Z,6.20
2023-02-03T19:50:32.953Z,6.06
2023-02-03T19:53:00.768Z,6.42
2023-02-03T19:55:31.117Z,6.50
2023-02-03T19:58:00.379Z,6.42
2023-02-03T20:00:45.781Z,5.88
2023-02-03T20:03:14.759Z,6.59
2023-02-03T20:05:42.655Z,6.41
2023-02-03T20:08:13.338Z,6.85
2023-02-03T20:10:54.167Z,6.78
2023-02-03T20:13:21.615Z,6.74
2023-02-03T20:15:49.425Z,6.89
2023-02-03T20:18:16.978Z,6.91
2023-02-03T20:20:44.505Z,6.35
2023-02-03T20:23:26.477Z,6.97
2023-02-03T20:26:25.761Z,6.64
2023-02-03T20:29:10.024Z,6.92
2023-02-03T20:31:37.597Z,6.93
2023-02-03T20:34:05.099Z,6.89
2023-02-03T20:36:32.994Z,6.92
2023-02-03T20:39:00.345Z,6.96
2023-02-03T20:41:27.631Z,6.60
2023-02-03T20:43:54.844Z,6.89
2023-02-03T20:46:24.279Z,6.87
2023-02-03T20:48:54.062Z,6.93
2023-02-03T20:51:27.023Z,6.95
2023-02-03T20:53:56.435Z,7.00
2023-02-03T20:56:26.492Z,6.91
2023-02-03T20:58:55.008Z,6.86
2023-02-03T21:04:30.753Z,6.28
2023-02-03T21:06:58.390Z,6.99
2023-02-03T21:09:27.824Z,6.99
2023-02-03T21:11:55.656Z,6.94
2023-02-03T21:14:58.980Z,7.02
2023-02-03T21:17:27.312Z,7.16
2023-02-03T21:20:26.199Z,7.04
2023-02-03T21:25:34.123Z,6.97
2023-02-03T21:28:01.649Z,6.85
2023-02-03T21:30:33.311Z,7.02
2023-02-03T21:33:09.687Z,5.40
2023-02-03T21:35:37.983Z,6.63
2023-02-03T21:38:28.140Z,7.14
2023-02-03T21:40:56.569Z,6.81
2023-02-03T21:43:27.427Z,7.10
2023-02-03T21:45:54.853Z,6.81
2023-02-03T21:48:41.295Z,6.69
2023-02-03T21:51:20.757Z,6.75
2023-02-03T21:53:55.808Z,6.41
2023-02-03T21:56:28.581Z,6.78
2023-02-03T21:58:59.081Z,6.98
2023-02-03T22:01:32.925Z,7.01
2023-02-03T22:04:02.457Z,6.76
2023-02-03T22:06:51.279Z,6.73
2023-02-03T22:09:24.879Z,6.85
2023-02-03T22:11:52.318Z,6.96
2023-02-03T22:14:23.424Z,6.97
2023-02-03T22:16:50.794Z,7.02
2023-02-03T22:19:18.101Z,7.01
2023-02-03T22:21:47.766Z,6.99
2023-02-03T22:24:15.161Z,6.92
2023-02-03T22:26:42.494Z,7.06
2023-02-03T22:29:09.998Z,6.77
2023-02-03T22:31:37.313Z,6.83
2023-02-03T22:34:04.875Z,7.00
2023-02-03T22:36:32.230Z,6.83
2023-02-03T22:38:59.469Z,6.94
2023-02-03T22:41:26.799Z,6.89
2023-02-03T22:43:54.133Z,6.82
2023-02-03T22:46:21.525Z,6.90
2023-02-03T22:48:48.983Z,6.87
2023-02-03T22:51:16.260Z,6.80
2023-02-03T22:53:43.666Z,6.78
2023-02-03T22:56:32.732Z,6.82
2023-02-03T22:59:02.665Z,6.47
2023-02-03T23:04:37.775Z,6.21
2023-02-03T23:07:06.357Z,6.91
2023-02-03T23:09:34.368Z,6.59
2023-02-03T23:12:02.291Z,6.55
2023-02-03T23:14:34.660Z,6.91
2023-02-03T23:17:02.475Z,6.97
2023-02-03T23:19:31.492Z,6.75
2023-02-03T23:22:01.224Z,6.98
2023-02-03T23:24:38.425Z,6.66
2023-02-03T23:27:10.933Z,6.27
2023-02-03T23:29:39.135Z,6.74
2023-02-03T23:32:07.635Z,6.81
2023-02-03T23:34:54.394Z,6.56
2023-02-03T23:37:22.850Z,6.81
2023-02-03T23:39:51.132Z,6.57
2023-02-03T23:42:18.871Z,6.40
2023-02-03T23:44:53.431Z,6.63
2023-02-03T23:53:31.184Z,6.46
2023-02-03T23:55:59.048Z,6.56
2023-02-03T23:58:26.432Z,6.59
